sensor_id;sensor_type;location;lat;lon;timestamp;pressure;altitude;pressure_sealevel;temperature;humidity
45285;BME280;31026;43.780;25.948;2023-04-20T00:00:29;100404.69;;;18.65;71.77
45285;BME280;31026;43.780;25.948;2023-04-20T00:02:58;100392.00;;;18.57;71.98
45285;BME280;31026;43.780;25.948;2023-04-20T00:05:27;100388.38;;;18.58;72.14
45285;BME280;31026;43.780;25.948;2023-04-20T00:07:56;100390.59;;;18.53;72.07
45285;BME280;31026;43.780;25.948;2023-04-20T00:10:25;100390.34;;;18.56;72.01
45285;BME280;31026;43.780;25.948;2023-04-20T00:12:56;100380.47;;;18.57;71.79
45285;BME280;31026;43.780;25.948;2023-04-20T00:15:24;100375.25;;;18.65;71.86
45285;BME280;31026;43.780;25.948;2023-04-20T00:17:54;100370.84;;;18.64;71.69
45285;BME280;31026;43.780;25.948;2023-04-20T00:20:22;100371.97;;;18.71;71.52
45285;BME280;31026;43.780;25.948;2023-04-20T00:22:51;100370.47;;;18.49;72.10
45285;BME280;31026;43.780;25.948;2023-04-20T00:25:19;100356.78;;;18.52;72.33
45285;BME280;31026;43.780;25.948;2023-04-20T00:27:48;100366.94;;;18.48;72.29
45285;BME280;31026;43.780;25.948;2023-04-20T00:30:19;100369.19;;;18.53;72.08
45285;BME280;31026;43.780;25.948;2023-04-20T00:32:47;100355.53;;;18.56;72.15
45285;BME280;31026;43.780;25.948;2023-04-20T00:35:15;100361.28;;;18.61;71.83
45285;BME280;31026;43.780;25.948;2023-04-20T00:37:43;100361.16;;;18.53;71.92
45285;BME280;31026;43.780;25.948;2023-04-20T00:40:12;100365.81;;;18.61;72.01
45285;BME280;31026;43.780;25.948;2023-04-20T00:42:40;100360.31;;;18.62;71.66
45285;BME280;31026;43.780;25.948;2023-04-20T00:45:09;100359.75;;;18.49;72.31
45285;BME280;31026;43.780;25.948;2023-04-20T00:47:39;100349.44;;;18.54;72.03
45285;BME280;31026;43.780;25.948;2023-04-20T00:50:08;100349.44;;;18.54;72.22
45285;BME280;31026;43.780;25.948;2023-04-20T00:52:37;100379.19;;;18.51;72.14
45285;BME280;31026;43.780;25.948;2023-04-20T00:55:06;100355.09;;;18.61;73.33
45285;BME280;31026;43.780;25.948;2023-04-20T00:57:35;100362.25;;;18.70;72.92
45285;BME280;31026;43.780;25.948;2023-04-20T01:00:03;100382.72;;;18.81;73.09
45285;BME280;31026;43.780;25.948;2023-04-20T01:02:33;100366.88;;;18.78;72.92
45285;BME280;31026;43.780;25.948;2023-04-20T01:05:04;100368.75;;;18.67;72.89
45285;BME280;31026;43.780;25.948;2023-04-20T01:07:32;100364.94;;;18.80;72.44
45285;BME280;31026;43.780;25.948;2023-04-20T01:10:01;100373.69;;;18.62;73.14
45285;BME280;31026;43.780;25.948;2023-04-20T01:12:29;100365.22;;;18.57;73.04
45285;BME280;31026;43.780;25.948;2023-04-20T01:14:57;100363.13;;;18.71;72.63
45285;BME280;31026;43.780;25.948;2023-04-20T01:17:25;100363.81;;;18.73;72.25
45285;BME280;31026;43.780;25.948;2023-04-20T01:19:54;100358.75;;;18.50;72.96
45285;BME280;31026;43.780;25.948;2023-04-20T01:22:26;100352.13;;;18.54;72.66
45285;BME280;31026;43.780;25.948;2023-04-20T01:24:55;100348.75;;;18.52;73.04
45285;BME280;31026;43.780;25.948;2023-04-20T01:27:23;100359.88;;;18.57;72.77
45285;BME280;31026;43.780;25.948;2023-04-20T01:29:51;100348.91;;;18.60;72.58
45285;BME280;31026;43.780;25.948;2023-04-20T01:32:20;100350.28;;;18.64;72.45
45285;BME280;31026;43.780;25.948;2023-04-20T01:34:48;100349.75;;;18.51;72.93
45285;BME280;31026;43.780;25.948;2023-04-20T01:37:16;100341.72;;;18.41;73.25
45285;BME280;31026;43.780;25.948;2023-04-20T01:39:47;100340.88;;;18.51;72.68
45285;BME280;31026;43.780;25.948;2023-04-20T01:42:15;100329.47;;;18.48;72.95
45285;BME280;31026;43.780;25.948;2023-04-20T01:44:44;100328.91;;;18.45;73.10
45285;BME280;31026;43.780;25.948;2023-04-20T01:47:12;100337.59;;;19.23;70.81
45285;BME280;31026;43.780;25.948;2023-04-20T01:49:40;100315.78;;;19.74;69.17
45285;BME280;31026;43.780;25.948;2023-04-20T01:52:09;100326.75;;;20.16;68.00
45285;BME280;31026;43.780;25.948;2023-04-20T01:54:37;100322.22;;;20.17;68.25
45285;BME280;31026;43.780;25.948;2023-04-20T01:57:08;100315.72;;;20.19;68.15
45285;BME280;31026;43.780;25.948;2023-04-20T01:59:36;100223.00;;;19.71;67.96
45285;BME280;31026;43.780;25.948;2023-04-20T02:02:05;100322.91;;;20.37;67.75
45285;BME280;31026;43.780;25.948;2023-04-20T02:04:33;100307.06;;;20.25;67.96
45285;BME280;31026;43.780;25.948;2023-04-20T02:07:01;100313.72;;;20.21;68.03
45285;BME280;31026;43.780;25.948;2023-04-20T02:09:29;100321.44;;;20.60;67.10
45285;BME280;31026;43.780;25.948;2023-04-20T02:11:58;100327.72;;;20.51;67.28
45285;BME280;31026;43.780;25.948;2023-04-20T02:14:29;100328.28;;;20.37;67.72
45285;BME280;31026;43.780;25.948;2023-04-20T02:16:57;100333.28;;;20.32;68.00
45285;BME280;31026;43.780;25.948;2023-04-20T02:19:25;100332.50;;;20.39;67.75
45285;BME280;31026;43.780;25.948;2023-04-20T02:21:53;100325.66;;;20.45;67.74
45285;BME280;31026;43.780;25.948;2023-04-20T02:24:22;100329.81;;;20.57;67.39
45285;BME280;31026;43.780;25.948;2023-04-20T02:26:50;100326.09;;;20.58;67.02
45285;BME280;31026;43.780;25.948;2023-04-20T02:29:18;100332.34;;;20.59;67.31
45285;BME280;31026;43.780;25.948;2023-04-20T02:31:49;100328.03;;;20.48;67.52
45285;BME280;31026;43.780;25.948;2023-04-20T02:34:17;100330.19;;;20.44;67.76
45285;BME280;31026;43.780;25.948;2023-04-20T02:36:46;100339.06;;;20.45;67.57
45285;BME280;31026;43.780;25.948;2023-04-20T02:39:14;100341.06;;;20.43;67.75
45285;BME280;31026;43.780;25.948;2023-04-20T02:41:42;100327.25;;;20.74;66.52
45285;BME280;31026;43.780;25.948;2023-04-20T02:44:11;100345.00;;;20.66;67.11
45285;BME280;31026;43.780;25.948;2023-04-20T02:46:39;100330.09;;;20.54;67.26
45285;BME280;31026;43.780;25.948;2023-04-20T02:49:11;100329.50;;;20.60;67.25
45285;BME280;31026;43.780;25.948;2023-04-20T02:51:39;100333.88;;;20.61;67.28
45285;BME280;31026;43.780;25.948;2023-04-20T02:54:08;100335.31;;;20.74;66.98
45285;BME280;31026;43.780;25.948;2023-04-20T02:56:36;100339.22;;;20.79;66.72
45285;BME280;31026;43.780;25.948;2023-04-20T02:59:04;100336.84;;;20.76;66.85
45285;BME280;31026;43.780;25.948;2023-04-20T03:01:33;100323.34;;;20.68;67.09
45285;BME280;31026;43.780;25.948;2023-04-20T03:04:01;100335.56;;;20.62;67.25
45285;BME280;31026;43.780;25.948;2023-04-20T03:06:32;100341.94;;;20.61;67.15
45285;BME280;31026;43.780;25.948;2023-04-20T03:09:00;100358.28;;;20.68;67.28
45285;BME280;31026;43.780;25.948;2023-04-20T03:11:29;100355.88;;;20.65;67.27
45285;BME280;31026;43.780;25.948;2023-04-20T03:13:57;100354.91;;;20.66;67.27
45285;BME280;31026;43.780;25.948;2023-04-20T03:16:25;100358.06;;;20.61;67.21
45285;BME280;31026;43.780;25.948;2023-04-20T03:18:53;100355.19;;;20.63;67.34
45285;BME280;31026;43.780;25.948;2023-04-20T03:21:22;100355.19;;;20.63;67.19
45285;BME280;31026;43.780;25.948;2023-04-20T03:23:53;100366.19;;;20.70;67.27
45285;BME280;31026;43.780;25.948;2023-04-20T03:26:21;100355.38;;;20.61;67.31
45285;BME280;31026;43.780;25.948;2023-04-20T03:28:49;100356.06;;;20.63;67.32
45285;BME280;31026;43.780;25.948;2023-04-20T03:31:18;100367.31;;;20.67;67.24
45285;BME280;31026;43.780;25.948;2023-04-20T03:33:46;100365.13;;;20.62;67.40
45285;BME280;31026;43.780;25.948;2023-04-20T03:36:14;100368.19;;;20.68;67.14
45285;BME280;31026;43.780;25.948;2023-04-20T03:38:43;100362.28;;;20.64;67.35
45285;BME280;31026;43.780;25.948;2023-04-20T03:41:14;100369.84;;;20.69;67.04
45285;BME280;31026;43.780;25.948;2023-04-20T03:43:42;100366.19;;;20.70;67.20
45285;BME280;31026;43.780;25.948;2023-04-20T03:46:10;100364.63;;;20.67;67.02
45285;BME280;31026;43.780;25.948;2023-04-20T03:48:38;100350.22;;;20.68;66.92
45285;BME280;31026;43.780;25.948;2023-04-20T03:51:07;100354.28;;;20.72;66.91
45285;BME280;31026;43.780;25.948;2023-04-20T03:53:35;100357.09;;;20.71;67.06
45285;BME280;31026;43.780;25.948;2023-04-20T03:56:03;100369.75;;;20.78;66.83
45285;BME280;31026;43.780;25.948;2023-04-20T03:58:35;100363.03;;;20.74;66.87
45285;BME280;31026;43.780;25.948;2023-04-20T04:01:03;100370.81;;;20.59;67.36
45285;BME280;31026;43.780;25.948;2023-04-20T04:03:34;100367.09;;;20.24;68.47
45285;BME280;31026;43.780;25.948;2023-04-20T04:06:02;100352.22;;;20.12;68.77
45285;BME280;31026;43.780;25.948;2023-04-20T04:08:31;100373.47;;;19.88;69.44
45285;BME280;31026;43.780;25.948;2023-04-20T04:10:59;100366.09;;;19.62;70.22
45285;BME280;31026;43.780;25.948;2023-04-20T04:13:27;100364.88;;;19.46;70.55
45285;BME280;31026;43.780;25.948;2023-04-20T04:15:59;100370.38;;;19.45;70.54
45285;BME280;31026;43.780;25.948;2023-04-20T04:18:27;100351.81;;;19.61;70.26
45285;BME280;31026;43.780;25.948;2023-04-20T04:20:56;100352.25;;;19.57;70.13
45285;BME280;31026;43.780;25.948;2023-04-20T04:23:24;100367.53;;;19.56;69.86
45285;BME280;31026;43.780;25.948;2023-04-20T04:25:53;100369.09;;;19.49;70.44
45285;BME280;31026;43.780;25.948;2023-04-20T04:28:22;100375.94;;;19.71;69.86
45285;BME280;31026;43.780;25.948;2023-04-20T04:30:51;100381.75;;;19.94;69.28
45285;BME280;31026;43.780;25.948;2023-04-20T04:33:22;100391.13;;;19.80;69.38
45285;BME280;31026;43.780;25.948;2023-04-20T04:35:50;100380.19;;;19.74;69.57
45285;BME280;31026;43.780;25.948;2023-04-20T04:38:19;100375.97;;;19.89;69.02
45285;BME280;31026;43.780;25.948;2023-04-20T04:40:47;100382.88;;;19.92;68.92
45285;BME280;31026;43.780;25.948;2023-04-20T04:43:16;100392.81;;;19.54;69.94
45285;BME280;31026;43.780;25.948;2023-04-20T04:45:44;100396.56;;;19.61;70.91
45285;BME280;31026;43.780;25.948;2023-04-20T04:48:14;100387.03;;;20.04;69.77
45285;BME280;31026;43.780;25.948;2023-04-20T04:50:45;100395.66;;;19.80;70.53
45285;BME280;31026;43.780;25.948;2023-04-20T04:53:14;100399.69;;;19.56;70.88
45285;BME280;31026;43.780;25.948;2023-04-20T04:55:42;100398.22;;;19.44;71.36
45285;BME280;31026;43.780;25.948;2023-04-20T04:58:10;100408.75;;;19.45;71.22
45285;BME280;31026;43.780;25.948;2023-04-20T05:00:38;100413.59;;;19.42;71.54
45285;BME280;31026;43.780;25.948;2023-04-20T05:03:07;100403.44;;;19.36;68.48
45285;BME280;31026;43.780;25.948;2023-04-20T05:05:35;100407.00;;;19.64;69.36
45285;BME280;31026;43.780;25.948;2023-04-20T05:08:06;100403.84;;;19.78;68.59
45285;BME280;31026;43.780;25.948;2023-04-20T05:10:35;100400.31;;;19.50;68.83
45285;BME280;31026;43.780;25.948;2023-04-20T05:13:03;100416.31;;;19.32;66.41
45285;BME280;31026;43.780;25.948;2023-04-20T05:15:32;100419.59;;;19.26;66.56
45285;BME280;31026;43.780;25.948;2023-04-20T05:18:00;100427.91;;;19.13;67.50
45285;BME280;31026;43.780;25.948;2023-04-20T05:20:29;100411.44;;;19.08;67.93
45285;BME280;31026;43.780;25.948;2023-04-20T05:22:57;100407.56;;;19.30;66.97
45285;BME280;31026;43.780;25.948;2023-04-20T05:25:28;100403.97;;;19.49;65.50
45285;BME280;31026;43.780;25.948;2023-04-20T05:27:56;100418.81;;;19.34;66.38
45285;BME280;31026;43.780;25.948;2023-04-20T05:30:25;100421.38;;;19.35;64.92
45285;BME280;31026;43.780;25.948;2023-04-20T05:32:53;100415.06;;;19.26;64.28
45285;BME280;31026;43.780;25.948;2023-04-20T05:35:21;100417.88;;;19.25;66.15
45285;BME280;31026;43.780;25.948;2023-04-20T05:37:50;100423.78;;;19.38;65.35
45285;BME280;31026;43.780;25.948;2023-04-20T05:40:18;100414.41;;;19.52;64.89
45285;BME280;31026;43.780;25.948;2023-04-20T05:42:49;100419.03;;;19.60;64.88
45285;BME280;31026;43.780;25.948;2023-04-20T05:45:17;100433.88;;;19.54;64.46
45285;BME280;31026;43.780;25.948;2023-04-20T05:47:51;100440.09;;;19.45;65.19
45285;BME280;31026;43.780;25.948;2023-04-20T05:50:19;100436.97;;;19.50;65.17
45285;BME280;31026;43.780;25.948;2023-04-20T05:52:47;100429.91;;;19.58;65.09
45285;BME280;31026;43.780;25.948;2023-04-20T05:55:16;100441.91;;;19.54;65.52
45285;BME280;31026;43.780;25.948;2023-04-20T05:57:45;100445.72;;;19.52;65.60
45285;BME280;31026;43.780;25.948;2023-04-20T06:00:16;100444.19;;;19.49;65.84
45285;BME280;31026;43.780;25.948;2023-04-20T06:02:44;100450.94;;;19.53;65.43
45285;BME280;31026;43.780;25.948;2023-04-20T06:05:13;100454.34;;;19.45;65.58
45285;BME280;31026;43.780;25.948;2023-04-20T06:07:41;100454.69;;;19.33;65.02
45285;BME280;31026;43.780;25.948;2023-04-20T06:10:09;100456.97;;;19.18;65.04
45285;BME280;31026;43.780;25.948;2023-04-20T06:12:38;100465.09;;;19.36;63.79
45285;BME280;31026;43.780;25.948;2023-04-20T06:15:07;100458.69;;;19.66;62.82
45285;BME280;31026;43.780;25.948;2023-04-20T06:17:38;100458.13;;;19.62;63.05
45285;BME280;31026;43.780;25.948;2023-04-20T06:20:07;100483.13;;;19.53;63.91
45285;BME280;31026;43.780;25.948;2023-04-20T06:22:35;100465.34;;;19.52;64.22
45285;BME280;31026;43.780;25.948;2023-04-20T06:25:04;100463.97;;;19.48;64.80
45285;BME280;31026;43.780;25.948;2023-04-20T06:27:32;100466.34;;;19.51;64.75
45285;BME280;31026;43.780;25.948;2023-04-20T06:30:01;100452.22;;;19.49;65.18
45285;BME280;31026;43.780;25.948;2023-04-20T06:32:29;100453.34;;;19.56;65.08
45285;BME280;31026;43.780;25.948;2023-04-20T06:35:00;100458.16;;;19.53;65.79
45285;BME280;31026;43.780;25.948;2023-04-20T06:37:28;100456.91;;;19.47;65.99
45285;BME280;31026;43.780;25.948;2023-04-20T06:39:57;100466.22;;;19.43;66.11
45285;BME280;31026;43.780;25.948;2023-04-20T06:42:25;100464.00;;;19.38;66.32
45285;BME280;31026;43.780;25.948;2023-04-20T06:44:53;100465.09;;;19.36;68.33
45285;BME280;31026;43.780;25.948;2023-04-20T06:47:22;100455.94;;;19.38;69.61
45285;BME280;31026;43.780;25.948;2023-04-20T06:49:55;100474.41;;;19.41;69.55
45285;BME280;31026;43.780;25.948;2023-04-20T06:52:26;100454.81;;;19.31;69.24
45285;BME280;31026;43.780;25.948;2023-04-20T06:54:55;100455.72;;;19.22;69.70
45285;BME280;31026;43.780;25.948;2023-04-20T06:57:25;100470.34;;;19.27;69.24
45285;BME280;31026;43.780;25.948;2023-04-20T06:59:53;100457.44;;;19.51;68.78
45285;BME280;31026;43.780;25.948;2023-04-20T07:02:23;100459.66;;;19.65;68.26
45285;BME280;31026;43.780;25.948;2023-04-20T07:04:51;100458.16;;;19.53;68.50
45285;BME280;31026;43.780;25.948;2023-04-20T07:07:19;100469.75;;;19.43;69.18
45285;BME280;31026;43.780;25.948;2023-04-20T07:09:50;100474.16;;;19.25;69.50
45285;BME280;31026;43.780;25.948;2023-04-20T07:12:18;100471.22;;;19.28;67.70
45285;BME280;31026;43.780;25.948;2023-04-20T07:14:47;100475.69;;;19.37;66.88
45285;BME280;31026;43.780;25.948;2023-04-20T07:17:15;100465.50;;;19.51;67.15
45285;BME280;31026;43.780;25.948;2023-04-20T07:19:43;100475.38;;;19.60;67.02
45285;BME280;31026;43.780;25.948;2023-04-20T07:22:12;100474.38;;;19.51;67.26
45285;BME280;31026;43.780;25.948;2023-04-20T07:24:40;100482.34;;;19.33;68.11
45285;BME280;31026;43.780;25.948;2023-04-20T07:27:11;100466.97;;;19.16;68.58
45285;BME280;31026;43.780;25.948;2023-04-20T07:29:39;100482.53;;;19.12;68.64
45285;BME280;31026;43.780;25.948;2023-04-20T07:32:08;100481.97;;;19.08;68.42
45285;BME280;31026;43.780;25.948;2023-04-20T07:34:36;100478.28;;;19.00;67.57
45285;BME280;31026;43.780;25.948;2023-04-20T07:37:04;100486.75;;;18.85;68.61
45285;BME280;31026;43.780;25.948;2023-04-20T07:39:33;100489.00;;;19.00;65.33
45285;BME280;31026;43.780;25.948;2023-04-20T07:42:01;100481.97;;;19.08;66.03
45285;BME280;31026;43.780;25.948;2023-04-20T07:44:32;100491.69;;;19.00;67.21
45285;BME280;31026;43.780;25.948;2023-04-20T07:47:01;100490.81;;;19.28;66.39
45285;BME280;31026;43.780;25.948;2023-04-20T07:49:30;100472.28;;;19.45;66.33
45285;BME280;31026;43.780;25.948;2023-04-20T07:51:58;100485.25;;;19.50;66.60
45285;BME280;31026;43.780;25.948;2023-04-20T07:54:27;100488.09;;;19.48;66.78
45285;BME280;31026;43.780;25.948;2023-04-20T07:56:56;100476.81;;;19.44;66.85
45285;BME280;31026;43.780;25.948;2023-04-20T07:59:25;100487.53;;;19.44;67.03
45285;BME280;31026;43.780;25.948;2023-04-20T08:01:59;100478.94;;;19.41;67.10
45285;BME280;31026;43.780;25.948;2023-04-20T08:04:28;100483.16;;;19.43;67.08
45285;BME280;31026;43.780;25.948;2023-04-20T08:06:56;100486.41;;;19.47;67.03
45285;BME280;31026;43.780;25.948;2023-04-20T08:09:25;100488.38;;;19.45;67.04
45285;BME280;31026;43.780;25.948;2023-04-20T08:11:53;100480.47;;;19.43;67.03
45285;BME280;31026;43.780;25.948;2023-04-20T08:14:22;100475.81;;;19.45;67.04
45285;BME280;31026;43.780;25.948;2023-04-20T08:16:50;100484.16;;;19.42;67.25
45285;BME280;31026;43.780;25.948;2023-04-20T08:19:21;100492.06;;;19.44;67.08
45285;BME280;31026;43.780;25.948;2023-04-20T08:21:50;100471.19;;;19.38;67.28
45285;BME280;31026;43.780;25.948;2023-04-20T08:24:19;100478.09;;;19.40;67.24
45285;BME280;31026;43.780;25.948;2023-04-20T08:26:47;100479.50;;;19.35;67.26
45285;BME280;31026;43.780;25.948;2023-04-20T08:29:16;100480.66;;;19.32;67.57
45285;BME280;31026;43.780;25.948;2023-04-20T08:31:44;100466.38;;;19.32;67.63
45285;BME280;31026;43.780;25.948;2023-04-20T08:34:12;100473.72;;;19.30;67.78
45285;BME280;31026;43.780;25.948;2023-04-20T08:36:46;100480.66;;;19.32;67.63
45285;BME280;31026;43.780;25.948;2023-04-20T08:39:17;100476.59;;;19.28;67.61
45285;BME280;31026;43.780;25.948;2023-04-20T08:41:45;100479.41;;;19.26;67.54
45285;BME280;31026;43.780;25.948;2023-04-20T08:44:17;100485.59;;;19.27;67.80
45285;BME280;31026;43.780;25.948;2023-04-20T08:46:46;100486.75;;;19.24;67.71
45285;BME280;31026;43.780;25.948;2023-04-20T08:49:15;100480.94;;;19.19;67.73
45285;BME280;31026;43.780;25.948;2023-04-20T08:51:46;100489.81;;;19.30;67.53
45285;BME280;31026;43.780;25.948;2023-04-20T08:54:15;100481.06;;;19.27;67.60
45285;BME280;31026;43.780;25.948;2023-04-20T08:56:44;100470.50;;;19.26;67.68
45285;BME280;31026;43.780;25.948;2023-04-20T08:59:13;100485.00;;;19.33;67.46
45285;BME280;31026;43.780;25.948;2023-04-20T09:01:41;100456.09;;;19.27;67.51
45285;BME280;31026;43.780;25.948;2023-04-20T09:04:16;100477.56;;;19.27;67.75
45285;BME280;31026;43.780;25.948;2023-04-20T09:06:48;100480.66;;;19.32;67.70
45285;BME280;31026;43.780;25.948;2023-04-20T09:09:17;100467.53;;;19.29;67.54
45285;BME280;31026;43.780;25.948;2023-04-20T09:11:46;100473.31;;;19.34;67.60
45285;BME280;31026;43.780;25.948;2023-04-20T09:14:15;100480.34;;;19.35;67.46
45285;BME280;31026;43.780;25.948;2023-04-20T09:16:48;100483.47;;;19.31;67.64
45285;BME280;31026;43.780;25.948;2023-04-20T09:19:20;100477.97;;;19.32;67.51
45285;BME280;31026;43.780;25.948;2023-04-20T09:21:51;100473.75;;;19.20;67.89
45285;BME280;31026;43.780;25.948;2023-04-20T09:24:21;100491.25;;;19.24;67.99
45285;BME280;31026;43.780;25.948;2023-04-20T09:26:50;100466.97;;;19.16;68.33
45285;BME280;31026;43.780;25.948;2023-04-20T09:29:18;100487.00;;;19.21;68.18
45285;BME280;31026;43.780;25.948;2023-04-20T09:31:47;100473.50;;;19.03;68.58
45285;BME280;31026;43.780;25.948;2023-04-20T09:34:16;100469.25;;;19.11;68.47
45285;BME280;31026;43.780;25.948;2023-04-20T09:36:45;100473.22;;;19.16;68.29
45285;BME280;31026;43.780;25.948;2023-04-20T09:39:18;100471.63;;;19.14;68.13
45285;BME280;31026;43.780;25.948;2023-04-20T09:41:47;100471.38;;;19.17;68.21
45285;BME280;31026;43.780;25.948;2023-04-20T09:44:15;100479.84;;;19.22;67.87
45285;BME280;31026;43.780;25.948;2023-04-20T09:46:44;100484.31;;;19.21;68.27
45285;BME280;31026;43.780;25.948;2023-04-20T09:49:13;100475.31;;;19.13;68.31
45285;BME280;31026;43.780;25.948;2023-04-20T09:51:41;100471.63;;;19.14;68.52
45285;BME280;31026;43.780;25.948;2023-04-20T09:54:12;100473.47;;;19.13;68.33
45285;BME280;31026;43.780;25.948;2023-04-20T09:56:43;100474.38;;;19.04;68.54
45285;BME280;31026;43.780;25.948;2023-04-20T09:59:12;100470.41;;;19.08;68.42
45285;BME280;31026;43.780;25.948;2023-04-20T10:01:41;100495.94;;;19.12;68.56
45285;BME280;31026;43.780;25.948;2023-04-20T10:04:09;100467.28;;;19.13;68.32
45285;BME280;31026;43.780;25.948;2023-04-20T10:06:39;100463.59;;;19.14;68.59
45285;BME280;31026;43.780;25.948;2023-04-20T10:09:07;100470.94;;;19.12;68.39
45285;BME280;31026;43.780;25.948;2023-04-20T10:11:36;100456.16;;;18.98;68.83
45285;BME280;31026;43.780;25.948;2023-04-20T10:14:16;100484.06;;;19.05;68.67
45285;BME280;31026;43.780;25.948;2023-04-20T10:16:45;100466.59;;;18.91;69.04
45285;BME280;31026;43.780;25.948;2023-04-20T10:19:13;100459.41;;;18.82;69.45
45285;BME280;31026;43.780;25.948;2023-04-20T10:21:45;100471.53;;;18.96;69.04
45285;BME280;31026;43.780;25.948;2023-04-20T10:24:14;100459.56;;;18.90;68.92
45285;BME280;31026;43.780;25.948;2023-04-20T10:26:43;100454.03;;;18.82;69.45
45285;BME280;31026;43.780;25.948;2023-04-20T10:29:24;100457.59;;;18.82;69.47
45285;BME280;31026;43.780;25.948;2023-04-20T10:31:53;100456.28;;;18.77;69.72
45285;BME280;31026;43.780;25.948;2023-04-20T10:34:31;100456.59;;;18.93;69.22
45285;BME280;31026;43.780;25.948;2023-04-20T10:37:08;100456.03;;;18.80;69.64
45285;BME280;31026;43.780;25.948;2023-04-20T10:39:42;100441.66;;;18.81;69.66
45285;BME280;31026;43.780;25.948;2023-04-20T10:42:11;100452.22;;;18.73;69.80
45285;BME280;31026;43.780;25.948;2023-04-20T10:44:48;100455.44;;;18.76;69.69
45285;BME280;31026;43.780;25.948;2023-04-20T10:47:24;100413.44;;;18.86;69.17
45285;BME280;31026;43.780;25.948;2023-04-20T10:49:53;100443.06;;;18.85;69.38
45285;BME280;31026;43.780;25.948;2023-04-20T10:52:30;100444.91;;;18.94;69.23
45285;BME280;31026;43.780;25.948;2023-04-20T10:54:59;100444.19;;;18.92;69.19
45285;BME280;31026;43.780;25.948;2023-04-20T10:57:27;100445.59;;;18.96;69.07
45285;BME280;31026;43.780;25.948;2023-04-20T10:59:58;100439.94;;;18.99;69.03
45285;BME280;31026;43.780;25.948;2023-04-20T11:02:26;100432.31;;;19.04;68.83
45285;BME280;31026;43.780;25.948;2023-04-20T11:04:55;100446.13;;;19.00;69.04
45285;BME280;31026;43.780;25.948;2023-04-20T11:07:25;100431.22;;;18.87;69.34
45285;BME280;31026;43.780;25.948;2023-04-20T11:09:53;100438.53;;;18.85;69.45
45285;BME280;31026;43.780;25.948;2023-04-20T11:12:22;100430.09;;;18.90;69.28
45285;BME280;31026;43.780;25.948;2023-04-20T11:14:51;100427.66;;;19.06;68.91
45285;BME280;31026;43.780;25.948;2023-04-20T11:17:22;100440.75;;;19.10;68.88
45285;BME280;31026;43.780;25.948;2023-04-20T11:20:02;100415.81;;;18.99;68.98
45285;BME280;31026;43.780;25.948;2023-04-20T11:22:35;100420.59;;;19.05;69.05
45285;BME280;31026;43.780;25.948;2023-04-20T11:25:03;100434.88;;;19.06;69.03
45285;BME280;31026;43.780;25.948;2023-04-20T11:27:32;100414.41;;;18.95;69.18
45285;BME280;31026;43.780;25.948;2023-04-20T11:30:00;100421.63;;;18.95;69.38
45285;BME280;31026;43.780;25.948;2023-04-20T11:32:33;100428.38;;;18.89;69.49
45285;BME280;31026;43.780;25.948;2023-04-20T11:35:02;100413.28;;;18.98;69.15
45285;BME280;31026;43.780;25.948;2023-04-20T11:37:32;100400.56;;;19.00;69.23
45285;BME280;31026;43.780;25.948;2023-04-20T11:40:01;100395.09;;;18.92;69.28
45285;BME280;31026;43.780;25.948;2023-04-20T11:42:32;100415.69;;;18.91;69.38
45285;BME280;31026;43.780;25.948;2023-04-20T11:45:00;100406.25;;;18.87;69.71
45285;BME280;31026;43.780;25.948;2023-04-20T11:47:29;100400.19;;;18.85;69.64
45285;BME280;31026;43.780;25.948;2023-04-20T11:50:00;100393.69;;;18.87;69.52
45285;BME280;31026;43.780;25.948;2023-04-20T11:52:28;100376.19;;;18.93;69.33
45285;BME280;31026;43.780;25.948;2023-04-20T11:54:56;100419.38;;;18.90;69.44
45285;BME280;31026;43.780;25.948;2023-04-20T11:57:24;100391.44;;;18.93;69.48
45285;BME280;31026;43.780;25.948;2023-04-20T11:59:53;100391.28;;;19.04;69.19
45285;BME280;31026;43.780;25.948;2023-04-20T12:02:21;100383.53;;;19.01;69.19
45285;BME280;31026;43.780;25.948;2023-04-20T12:04:49;100381.41;;;19.04;68.97
45285;BME280;31026;43.780;25.948;2023-04-20T12:07:20;100371.69;;;18.94;69.21
45285;BME280;31026;43.780;25.948;2023-04-20T12:09:49;100375.03;;;19.05;69.00
45285;BME280;31026;43.780;25.948;2023-04-20T12:12:17;100384.34;;;19.01;69.03
45285;BME280;31026;43.780;25.948;2023-04-20T12:14:46;100386.06;;;19.02;69.20
45285;BME280;31026;43.780;25.948;2023-04-20T12:17:14;100358.69;;;19.08;68.89
45285;BME280;31026;43.780;25.948;2023-04-20T12:19:43;100362.66;;;19.04;69.01
45285;BME280;31026;43.780;25.948;2023-04-20T12:22:11;100365.72;;;19.10;68.88
45285;BME280;31026;43.780;25.948;2023-04-20T12:24:42;100366.31;;;19.03;68.96
45285;BME280;31026;43.780;25.948;2023-04-20T12:27:11;100355.28;;;19.16;68.87
45285;BME280;31026;43.780;25.948;2023-04-20T12:29:39;100359.66;;;19.07;68.93
45285;BME280;31026;43.780;25.948;2023-04-20T12:32:07;100359.81;;;19.06;68.92
45285;BME280;31026;43.780;25.948;2023-04-20T12:34:35;100358.97;;;19.05;69.14
45285;BME280;31026;43.780;25.948;2023-04-20T12:37:04;100341.47;;;19.11;68.84
45285;BME280;31026;43.780;25.948;2023-04-20T12:39:32;100345.88;;;19.02;69.00
45285;BME280;31026;43.780;25.948;2023-04-20T12:42:03;100351.38;;;19.01;69.40
45285;BME280;31026;43.780;25.948;2023-04-20T12:44:31;100357.28;;;19.04;69.13
45285;BME280;31026;43.780;25.948;2023-04-20T12:46:59;100354.19;;;18.99;69.41
45285;BME280;31026;43.780;25.948;2023-04-20T12:49:27;100353.88;;;19.12;68.96